createdAt,value
2022-11-10T00:00:06.675Z,59.19
2022-11-10T00:01:06.720Z,58.50
2022-11-10T00:02:06.661Z,58.78
2022-11-10T00:03:06.629Z,60.52
2022-11-10T00:04:06.694Z,68.77
2022-11-10T00:05:06.637Z,66.49
2022-11-10T00:06:06.619Z,67.40
2022-11-10T00:07:06.772Z,72.99
2022-11-10T00:08:06.664Z,60.11
2022-11-10T00:09:06.599Z,59.35
2022-11-10T00:10:06.583Z,70.46
2022-11-10T00:11:06.599Z,61.03
2022-11-10T00:12:06.670Z,66.42
2022-11-10T00:13:06.561Z,62.72
2022-11-10T00:14:06.581Z,77.42
2022-11-10T00:15:06.574Z,70.16
2022-11-10T00:16:06.547Z,60.41
2022-11-10T00:17:06.535Z,59.53
2022-11-10T00:18:06.570Z,64.96
2022-11-10T00:19:06.530Z,62.93
2022-11-10T00:20:06.525Z,62.67
2022-11-10T00:21:06.541Z,69.15
2022-11-10T00:22:06.505Z,62.24
2022-11-10T00:23:06.522Z,66.56
2022-11-10T00:24:06.492Z,65.61
2022-11-10T00:25:06.498Z,66.97
2022-11-10T00:26:06.477Z,72.57
2022-11-10T00:27:06.503Z,61.79
2022-11-10T00:28:06.475Z,60.66
2022-11-10T00:29:06.497Z,72.96
2022-11-10T00:30:06.472Z,65.57
2022-11-10T00:31:06.467Z,64.84
2022-11-10T00:32:06.456Z,65.88
2022-11-10T00:33:06.441Z,65.72
2022-11-10T00:34:06.567Z,59.94
2022-11-10T00:35:06.451Z,60.92
2022-11-10T00:36:06.419Z,72.86
2022-11-10T00:37:06.433Z,66.43
2022-11-10T00:38:06.423Z,60.90
2022-11-10T00:39:06.411Z,61.29
2022-11-10T00:40:06.416Z,75.12
2022-11-10T00:41:06.381Z,73.56
2022-11-10T00:42:06.375Z,66.27
2022-11-10T00:43:06.402Z,59.83
2022-11-10T00:44:06.387Z,59.13
2022-11-10T00:45:06.392Z,59.15
2022-11-10T00:46:06.369Z,59.47
2022-11-10T00:47:06.354Z,59.57
2022-11-10T00:48:06.349Z,60.45
2022-11-10T00:49:06.334Z,64.76
2022-11-10T00:50:06.350Z,64.26
2022-11-10T00:51:06.338Z,59.29
2022-11-10T00:52:06.325Z,59.18
2022-11-10T00:53:06.322Z,58.81
2022-11-10T00:54:06.321Z,59.97
2022-11-10T00:55:06.320Z,68.22
2022-11-10T00:56:06.332Z,60.07
2022-11-10T00:57:06.322Z,66.88
2022-11-10T00:58:06.307Z,59.98
2022-11-10T00:59:06.289Z,61.50
2022-11-10T01:00:06.273Z,64.75
2022-11-10T01:01:06.296Z,70.03
2022-11-10T01:02:06.379Z,65.08
2022-11-10T01:03:06.260Z,60.60
2022-11-10T01:04:06.260Z,67.13
2022-11-10T01:05:06.254Z,69.84
2022-11-10T01:06:06.278Z,61.56
2022-11-10T01:07:06.279Z,66.73
2022-11-10T01:08:06.244Z,60.10
2022-11-10T01:09:06.225Z,71.23
2022-11-10T01:10:06.210Z,63.67
2022-11-10T01:11:06.225Z,60.20
2022-11-10T01:12:06.204Z,59.04
2022-11-10T01:13:06.235Z,58.88
2022-11-10T01:14:06.206Z,59.23
2022-11-10T01:15:06.199Z,59.62
2022-11-10T01:16:06.183Z,61.33
2022-11-10T01:17:06.184Z,69.64
2022-11-10T01:18:06.308Z,71.23
2022-11-10T01:19:06.171Z,65.66
2022-11-10T01:20:06.162Z,60.65
2022-11-10T01:21:06.158Z,69.06
2022-11-10T01:22:06.166Z,66.45
2022-11-10T01:23:06.149Z,62.93
2022-11-10T01:24:06.172Z,58.70
2022-11-10T01:25:06.148Z,63.58
2022-11-10T01:26:06.112Z,59.00
2022-11-10T01:27:06.132Z,67.70
2022-11-10T01:28:06.128Z,62.71
2022-11-10T01:29:06.133Z,67.80
2022-11-10T01:30:06.084Z,62.08
2022-11-10T01:31:06.111Z,58.49
2022-11-10T01:32:06.101Z,58.38
2022-11-10T01:33:06.110Z,58.45
2022-11-10T01:34:06.098Z,58.06
2022-11-10T01:35:06.114Z,59.27
2022-11-10T01:36:06.073Z,65.13
2022-11-10T01:37:06.061Z,68.76
2022-11-10T01:38:06.079Z,59.40
2022-11-10T01:39:06.079Z,67.08
2022-11-10T01:40:06.105Z,68.93
2022-11-10T01:41:06.033Z,59.99
2022-11-10T01:42:06.028Z,65.62
2022-11-10T01:43:06.025Z,69.00
2022-11-10T01:44:06.020Z,68.27
2022-11-10T01:45:06.016Z,73.12
2022-11-10T01:46:06.018Z,76.72
2022-11-10T01:47:06.016Z,61.65
2022-11-10T01:48:05.995Z,58.87
2022-11-10T01:49:05.986Z,58.97
2022-11-10T01:50:06.014Z,59.04
2022-11-10T01:51:06.200Z,63.82
2022-11-10T01:52:05.998Z,65.94
2022-11-10T01:53:05.975Z,59.78
2022-11-10T01:54:05.984Z,59.02
2022-11-10T01:55:05.951Z,68.32
2022-11-10T01:56:05.957Z,72.17
2022-11-10T01:57:06.084Z,60.42
2022-11-10T01:58:05.943Z,67.92
2022-11-10T01:59:05.925Z,71.32
2022-11-10T02:00:05.926Z,63.62
2022-11-10T02:01:05.930Z,66.35
2022-11-10T02:02:05.992Z,72.61
2022-11-10T02:03:05.898Z,70.49
2022-11-10T02:04:05.904Z,69.17
2022-11-10T02:05:05.872Z,67.99
2022-11-10T02:06:05.883Z,71.43
2022-11-10T02:07:05.896Z,61.65
2022-11-10T02:08:05.914Z,78.26
2022-11-10T02:09:06.864Z,73.84
2022-11-10T02:10:05.875Z,73.80
2022-11-10T02:11:05.860Z,75.36
2022-11-10T02:12:05.877Z,73.65
2022-11-10T02:13:05.883Z,72.71
2022-11-10T02:14:05.836Z,65.86
2022-11-10T02:15:05.834Z,72.75
2022-11-10T02:16:05.811Z,69.18
2022-11-10T02:17:05.843Z,77.66
2022-11-10T02:18:05.851Z,75.00
2022-11-10T02:19:06.187Z,72.08
2022-11-10T02:20:05.794Z,76.63
2022-11-10T02:21:05.783Z,74.83
2022-11-10T02:22:05.797Z,70.73
2022-11-10T02:23:05.785Z,69.60
2022-11-10T02:24:05.816Z,68.88
2022-11-10T02:25:05.762Z,70.86
2022-11-10T02:26:05.769Z,76.98
2022-11-10T02:27:05.755Z,70.79
2022-11-10T02:28:05.751Z,68.77
2022-11-10T02:29:05.725Z,72.24
2022-11-10T02:30:05.753Z,61.65
2022-11-10T02:31:05.733Z,75.42
2022-11-10T02:32:05.731Z,61.11
2022-11-10T02:33:05.731Z,67.19
2022-11-10T02:34:05.723Z,79.82
2022-11-10T02:35:05.719Z,67.28
2022-11-10T02:36:05.700Z,61.13
2022-11-10T02:37:05.674Z,67.37
2022-11-10T02:38:05.717Z,59.37
2022-11-10T02:39:05.696Z,59.41
2022-11-10T02:40:05.692Z,64.94
2022-11-10T02:41:05.691Z,68.17
2022-11-10T02:42:05.668Z,60.25
2022-11-10T02:43:05.666Z,60.89
2022-11-10T02:44:05.656Z,72.82
2022-11-10T02:45:05.651Z,61.78
2022-11-10T02:46:05.657Z,64.71
2022-11-10T02:47:05.654Z,61.76
2022-11-10T02:48:05.606Z,64.29
2022-11-10T02:49:05.652Z,65.70
2022-11-10T02:50:05.604Z,60.37
2022-11-10T02:51:05.617Z,64.74
2022-11-10T02:52:05.631Z,59.69
2022-11-10T02:53:05.587Z,59.05
2022-11-10T02:54:05.586Z,59.30
2022-11-10T02:55:05.576Z,59.95
2022-11-10T02:56:05.590Z,70.31
2022-11-10T02:57:05.672Z,60.02
2022-11-10T02:58:05.557Z,60.31
2022-11-10T02:59:05.561Z,68.58
2022-11-10T03:00:05.559Z,66.66
2022-11-10T03:01:05.624Z,68.45
2022-11-10T03:02:05.515Z,60.71
2022-11-10T03:03:05.644Z,59.76
2022-11-10T03:04:05.529Z,59.13
2022-11-10T03:05:05.523Z,59.32
2022-11-10T03:06:05.518Z,60.56
2022-11-10T03:07:05.534Z,72.15
2022-11-10T03:08:05.627Z,70.10
2022-11-10T03:09:05.498Z,66.84
2022-11-10T03:10:05.505Z,65.47
2022-11-10T03:11:05.481Z,71.92
2022-11-10T03:12:05.491Z,66.13
2022-11-10T03:13:05.468Z,66.67
2022-11-10T03:14:05.499Z,59.98
2022-11-10T03:15:05.465Z,70.11
2022-11-10T03:16:05.460Z,69.01
2022-11-10T03:17:05.458Z,66.55
2022-11-10T03:18:05.455Z,65.34
2022-11-10T03:19:05.548Z,70.03
2022-11-10T03:20:05.434Z,76.95
2022-11-10T03:21:05.423Z,71.39
2022-11-10T03:22:05.423Z,60.50
2022-11-10T03:23:05.407Z,64.36
2022-11-10T03:24:05.406Z,75.39
2022-11-10T03:25:05.429Z,69.55
2022-11-10T03:26:05.385Z,63.17
2022-11-10T03:27:05.394Z,69.24
2022-11-10T03:28:05.372Z,64.13
2022-11-10T03:29:05.379Z,70.21
2022-11-10T03:30:05.428Z,72.89
2022-11-10T03:31:05.384Z,66.17
2022-11-10T03:32:05.365Z,60.92
2022-11-10T03:33:05.366Z,62.99
2022-11-10T03:34:05.347Z,76.35
2022-11-10T03:35:05.336Z,63.95
2022-11-10T03:36:05.364Z,67.01
2022-11-10T03:37:05.320Z,61.75
2022-11-10T03:38:05.313Z,71.49
2022-11-10T03:39:05.306Z,71.77
2022-11-10T03:40:05.318Z,61.33
2022-11-10T03:41:19.209Z,60.33
2022-11-10T03:42:07.324Z,67.66
2022-11-10T03:43:05.288Z,71.41
2022-11-10T03:44:05.297Z,61.16
2022-11-10T03:45:05.288Z,68.36
2022-11-10T03:46:05.277Z,66.71
2022-11-10T03:47:05.369Z,72.16
2022-11-10T03:48:05.251Z,64.71
2022-11-10T03:49:05.242Z,60.45
2022-11-10T03:50:05.264Z,65.31
2022-11-10T03:51:05.244Z,60.50
2022-11-10T03:52:05.339Z,68.97
2022-11-10T03:53:05.248Z,67.77
2022-11-10T03:54:05.239Z,70.32
2022-11-10T03:55:05.223Z,66.83
2022-11-10T03:56:05.215Z,69.57
2022-11-10T03:57:05.197Z,61.14
2022-11-10T03:58:05.301Z,74.92
2022-11-10T03:59:05.221Z,69.43
2022-11-10T04:00:05.311Z,78.87
2022-11-10T04:01:05.179Z,68.41
2022-11-10T04:02:05.212Z,78.32
2022-11-10T04:03:05.188Z,65.68
2022-11-10T04:04:05.150Z,75.63
2022-11-10T04:05:05.139Z,66.53
2022-11-10T04:06:05.131Z,77.11
2022-11-10T04:07:05.343Z,63.79
2022-11-10T04:08:05.135Z,71.97
2022-11-10T04:09:05.126Z,74.78
2022-11-10T04:10:05.116Z,74.16
2022-11-10T04:11:05.099Z,70.49
2022-11-10T04:12:05.107Z,71.99
2022-11-10T04:13:05.087Z,73.47
2022-11-10T04:14:05.118Z,68.72
2022-11-10T04:15:05.087Z,73.91
2022-11-10T04:16:05.083Z,67.54
2022-11-10T04:17:05.095Z,69.19
2022-11-10T04:18:05.110Z,74.29
2022-11-10T04:19:05.073Z,78.99
2022-11-10T04:20:05.086Z,82.28
2022-11-10T04:21:05.046Z,70.63
2022-11-10T04:22:05.039Z,73.83
2022-11-10T04:23:05.038Z,61.47
2022-11-10T04:24:05.035Z,70.36
2022-11-10T04:25:05.159Z,77.95
2022-11-10T04:26:05.024Z,67.25
2022-11-10T04:27:05.025Z,73.33
2022-11-10T04:28:05.011Z,66.88
2022-11-10T04:29:04.983Z,78.97
2022-11-10T04:30:04.990Z,69.26
2022-11-10T04:31:05.006Z,69.33
2022-11-10T04:32:04.979Z,70.63
2022-11-10T04:33:04.985Z,74.48
2022-11-10T04:34:04.979Z,73.51
2022-11-10T04:35:04.978Z,78.94
2022-11-10T04:36:04.984Z,76.30
2022-11-10T04:37:04.943Z,80.23
2022-11-10T04:38:04.957Z,76.47
2022-11-10T04:39:04.948Z,74.41
2022-11-10T04:40:04.928Z,66.46
2022-11-10T04:41:04.931Z,77.44
2022-11-10T04:42:05.372Z,63.24
2022-11-10T04:43:04.925Z,71.64
2022-11-10T04:44:04.896Z,73.40
2022-11-10T04:45:04.909Z,64.78
2022-11-10T04:46:04.914Z,71.99
2022-11-10T04:47:10.576Z,71.10
2022-11-10T04:48:06.887Z,77.04
2022-11-10T04:49:04.870Z,74.57
2022-11-10T04:50:04.874Z,65.54
2022-11-10T04:51:04.871Z,70.31
2022-11-10T04:52:04.909Z,71.17
2022-11-10T04:53:04.886Z,62.27
2022-11-10T04:54:04.927Z,78.92
2022-11-10T04:55:04.877Z,76.32
2022-11-10T04:56:04.908Z,75.07
2022-11-10T04:57:04.827Z,75.23
2022-11-10T04:58:05.669Z,75.87
2022-11-10T04:59:04.817Z,72.79
2022-11-10T05:00:04.829Z,68.98
2022-11-10T05:01:04.842Z,79.02
2022-11-10T05:02:04.806Z,74.41
2022-11-10T05:03:04.795Z,79.12
2022-11-10T05:04:04.807Z,84.78
2022-11-10T05:05:04.808Z,75.50
2022-11-10T05:06:04.763Z,67.92
2022-11-10T05:07:04.809Z,81.94
2022-11-10T05:08:04.777Z,82.48
2022-11-10T05:09:04.751Z,76.62
2022-11-10T05:10:04.747Z,77.48
2022-11-10T05:11:04.755Z,78.32
2022-11-10T05:12:04.749Z,82.33
2022-11-10T05:13:04.732Z,80.83
2022-11-10T05:14:04.732Z,78.22
2022-11-10T05:15:04.735Z,78.97
2022-11-10T05:16:04.687Z,75.90
2022-11-10T05:17:04.718Z,76.37
2022-11-10T05:18:04.713Z,70.87
2022-11-10T05:19:04.689Z,76.09
2022-11-10T05:20:04.687Z,71.39
2022-11-10T05:21:04.698Z,81.98
2022-11-10T05:22:04.677Z,78.26
2022-11-10T05:23:04.686Z,80.81
2022-11-10T05:24:04.662Z,80.35
2022-11-10T05:25:04.665Z,72.44
2022-11-10T05:26:04.660Z,79.41
2022-11-10T05:27:04.681Z,81.57
2022-11-10T05:28:04.656Z,72.65
2022-11-10T05:29:04.619Z,81.18
2022-11-10T05:30:04.629Z,81.88
2022-11-10T05:31:04.616Z,79.82
2022-11-10T05:32:04.612Z,83.40
2022-11-10T05:33:04.614Z,75.66
2022-11-10T05:34:04.604Z,73.55
2022-11-10T05:35:04.589Z,80.88
2022-11-10T05:36:04.579Z,77.80
2022-11-10T05:37:04.588Z,82.86
2022-11-10T05:38:04.596Z,79.92
2022-11-10T05:39:04.578Z,83.00
2022-11-10T05:40:04.557Z,78.57
2022-11-10T05:41:04.557Z,78.99
2022-11-10T05:42:04.566Z,73.14
2022-11-10T05:43:04.556Z,77.07
2022-11-10T05:44:04.540Z,80.80
2022-11-10T05:45:04.531Z,80.87
2022-11-10T05:46:04.538Z,78.28
2022-11-10T05:47:04.574Z,82.28
2022-11-10T05:48:04.512Z,83.18
2022-11-10T05:49:04.508Z,75.37
2022-11-10T05:50:04.500Z,79.22
2022-11-10T05:51:04.497Z,82.53
2022-11-10T05:52:04.498Z,77.19
2022-11-10T05:53:04.503Z,78.86
2022-11-10T05:54:04.508Z,80.19
2022-11-10T05:55:04.476Z,82.41
2022-11-10T05:56:04.465Z,77.26
2022-11-10T05:57:04.474Z,77.77
2022-11-10T05:58:04.467Z,79.18
2022-11-10T05:59:07.233Z,77.43
2022-11-10T06:00:04.464Z,77.68
2022-11-10T06:01:04.441Z,82.36
2022-11-10T06:02:04.451Z,86.31
2022-11-10T06:03:04.502Z,81.44
2022-11-10T06:04:04.491Z,81.91
2022-11-10T06:05:04.410Z,78.41
2022-11-10T06:06:05.355Z,80.09
2022-11-10T06:07:04.589Z,76.02
2022-11-10T06:08:04.404Z,83.33
2022-11-10T06:09:05.367Z,77.23
2022-11-10T06:10:04.383Z,79.18
2022-11-10T06:11:04.379Z,81.64
2022-11-10T06:12:04.388Z,73.04
2022-11-10T06:13:04.365Z,86.10
2022-11-10T06:14:04.345Z,87.13
2022-11-10T06:15:04.351Z,83.65
2022-11-10T06:16:04.316Z,79.01
2022-11-10T06:17:04.352Z,78.76
2022-11-10T06:18:04.348Z,82.60
2022-11-10T06:19:04.314Z,78.85
2022-11-10T06:20:04.322Z,84.47
2022-11-10T06:21:04.305Z,84.14
2022-11-10T06:22:07.657Z,84.94
2022-11-10T06:23:05.408Z,84.85
2022-11-10T06:24:04.356Z,84.72
2022-11-10T06:25:04.275Z,83.65
2022-11-10T06:26:04.311Z,79.61
2022-11-10T06:27:04.279Z,85.65
2022-11-10T06:28:04.275Z,86.35
2022-11-10T06:29:04.283Z,79.89
2022-11-10T06:30:04.250Z,84.38
2022-11-10T06:31:04.242Z,85.40
2022-11-10T06:32:04.258Z,82.66
2022-11-10T06:33:04.247Z,85.72
2022-11-10T06:34:04.219Z,80.98
2022-11-10T06:35:04.220Z,83.76
2022-11-10T06:36:04.223Z,88.90
2022-11-10T06:37:04.228Z,86.78
2022-11-10T06:38:04.220Z,86.56
2022-11-10T06:39:04.212Z,78.73
2022-11-10T06:40:04.204Z,80.62
2022-11-10T06:41:04.200Z,83.91
2022-11-10T06:42:04.202Z,83.95
2022-11-10T06:43:04.177Z,79.82
2022-11-10T06:44:04.155Z,87.59
2022-11-10T06:45:04.170Z,85.48
2022-11-10T06:46:04.150Z,78.30
2022-11-10T06:47:04.125Z,80.76
2022-11-10T06:48:05.263Z,83.21
2022-11-10T06:49:04.153Z,74.15
2022-11-10T06:50:04.121Z,84.24
2022-11-10T06:51:04.119Z,80.98
2022-11-10T06:52:04.122Z,72.78
2022-11-10T06:53:04.113Z,82.23
2022-11-10T06:54:04.239Z,79.41
2022-11-10T06:55:04.105Z,77.50
2022-11-10T06:56:04.088Z,83.62
2022-11-10T06:57:04.102Z,74.44
2022-11-10T06:58:04.090Z,80.34
2022-11-10T06:59:04.082Z,82.80
2022-11-10T07:00:04.068Z,81.50
2022-11-10T07:01:04.109Z,81.42
2022-11-10T07:02:04.065Z,78.29
2022-11-10T07:03:04.072Z,79.15
2022-11-10T07:04:19.162Z,81.00
2022-11-10T07:05:06.149Z,82.68
2022-11-10T07:06:04.010Z,82.19
2022-11-10T07:07:04.049Z,77.21
2022-11-10T07:08:03.995Z,80.52
2022-11-10T07:09:04.006Z,78.98
2022-11-10T07:10:06.963Z,80.96
2022-11-10T07:11:05.035Z,83.61
2022-11-10T07:12:03.978Z,82.61
2022-11-10T07:13:03.975Z,82.49
2022-11-10T07:14:03.980Z,76.44
2022-11-10T07:15:03.983Z,76.25
2022-11-10T07:16:03.982Z,82.71
2022-11-10T07:17:04.006Z,80.19
2022-11-10T07:18:03.947Z,78.15
2022-11-10T07:19:03.935Z,74.76
2022-11-10T07:20:04.939Z,86.08
2022-11-10T07:21:03.977Z,82.07
2022-11-10T07:22:09.671Z,79.28
2022-11-10T07:23:05.917Z,85.78
2022-11-10T07:24:03.911Z,79.79
2022-11-10T07:25:03.903Z,78.14
2022-11-10T07:26:03.909Z,81.19
2022-11-10T07:27:03.908Z,77.93
2022-11-10T07:28:03.912Z,82.62
2022-11-10T07:29:03.894Z,79.70
2022-11-10T07:30:03.869Z,81.49
2022-11-10T07:31:03.873Z,76.37
2022-11-10T07:32:03.877Z,84.33
2022-11-10T07:33:03.862Z,78.86
2022-11-10T07:34:03.838Z,78.81
2022-11-10T07:35:03.847Z,79.87
2022-11-10T07:36:03.849Z,82.19
2022-11-10T07:37:03.832Z,81.61
2022-11-10T07:38:03.827Z,84.71
2022-11-10T07:39:04.696Z,79.46
2022-11-10T07:40:03.796Z,81.20
2022-11-10T07:41:03.847Z,81.78
2022-11-10T07:42:03.820Z,86.40
2022-11-10T07:43:03.794Z,80.41
2022-11-10T07:44:03.791Z,74.54
2022-11-10T07:45:03.811Z,83.87
2022-11-10T07:46:03.786Z,79.86
2022-11-10T07:47:03.780Z,74.97
2022-11-10T07:48:03.761Z,75.85
2022-11-10T07:49:03.756Z,81.69
2022-11-10T07:50:03.767Z,76.01
2022-11-10T07:51:03.762Z,86.03
2022-11-10T07:52:03.746Z,80.02
2022-11-10T07:53:04.736Z,72.43
2022-11-10T07:54:03.718Z,76.68
2022-11-10T07:55:03.717Z,81.73
2022-11-10T07:56:03.716Z,80.11
2022-11-10T07:57:04.737Z,81.25
2022-11-10T07:58:03.719Z,77.65
2022-11-10T07:59:03.689Z,78.02
2022-11-10T08:00:04.690Z,81.27
2022-11-10T08:01:03.688Z,74.57
2022-11-10T08:02:03.761Z,86.02
2022-11-10T08:03:03.688Z,76.46
2022-11-10T08:04:03.662Z,76.86
2022-11-10T08:05:03.664Z,79.54
2022-11-10T08:06:03.675Z,78.87
2022-11-10T08:07:03.720Z,79.42
2022-11-10T08:08:03.642Z,83.12
2022-11-10T08:09:03.634Z,70.75
2022-11-10T08:10:03.641Z,79.92
2022-11-10T08:11:03.641Z,80.16
2022-11-10T08:12:03.634Z,80.37
2022-11-10T08:13:03.600Z,81.28
2022-11-10T08:14:03.609Z,71.44
2022-11-10T08:15:03.597Z,79.83
2022-11-10T08:16:03.607Z,77.75
2022-11-10T08:17:03.617Z,68.72
2022-11-10T08:18:03.597Z,76.79
2022-11-10T08:19:03.581Z,75.31
2022-11-10T08:20:03.563Z,75.61
2022-11-10T08:21:03.581Z,77.39
2022-11-10T08:22:03.586Z,78.11
2022-11-10T08:23:03.556Z,72.60
2022-11-10T08:24:03.545Z,75.18
2022-11-10T08:25:03.542Z,76.51
2022-11-10T08:26:03.558Z,74.84
2022-11-10T08:27:03.554Z,75.62
2022-11-10T08:28:03.521Z,73.81
2022-11-10T08:29:03.543Z,80.65
2022-11-10T08:30:03.514Z,71.56
2022-11-10T08:31:05.741Z,74.55
2022-11-10T08:32:03.506Z,83.73
2022-11-10T08:33:03.496Z,74.97
2022-11-10T08:34:03.513Z,74.50
2022-11-10T08:35:03.478Z,76.16
2022-11-10T08:36:03.489Z,81.99
2022-11-10T08:37:03.486Z,76.45
2022-11-10T08:38:08.959Z,79.70
2022-11-10T08:39:05.461Z,72.64
2022-11-10T08:40:03.453Z,77.66
2022-11-10T08:41:03.482Z,74.77
2022-11-10T08:42:03.476Z,77.22
2022-11-10T08:43:03.443Z,73.48
2022-11-10T08:44:04.123Z,77.86
2022-11-10T08:45:03.450Z,71.09
2022-11-10T08:46:03.439Z,72.62
2022-11-10T08:47:03.423Z,68.93
2022-11-10T08:48:03.418Z,85.04
2022-11-10T08:49:03.390Z,74.95
2022-11-10T08:50:03.379Z,78.94
2022-11-10T08:51:03.394Z,80.38
2022-11-10T08:52:03.391Z,70.12
2022-11-10T08:53:03.364Z,79.33
2022-11-10T08:54:03.377Z,71.97
2022-11-10T08:55:03.358Z,73.83
2022-11-10T08:56:03.391Z,83.28
2022-11-10T08:57:03.404Z,65.01
2022-11-10T08:58:03.336Z,70.93
2022-11-10T08:59:03.342Z,80.44
2022-11-10T09:00:03.324Z,72.80
2022-11-10T09:01:03.335Z,69.27
2022-11-10T09:02:03.327Z,73.06
2022-11-10T09:03:03.315Z,66.64
2022-11-10T09:04:03.317Z,74.95
2022-11-10T09:05:03.459Z,81.31
2022-11-10T09:06:03.302Z,68.42
2022-11-10T09:07:03.304Z,80.40
2022-11-10T09:08:03.297Z,78.60
2022-11-10T09:09:03.346Z,65.37
2022-11-10T09:10:07.615Z,83.44
2022-11-10T09:11:04.381Z,72.25
2022-11-10T09:12:03.255Z,81.92
2022-11-10T09:13:03.269Z,75.68
2022-11-10T09:14:03.285Z,73.11
2022-11-10T09:15:03.263Z,68.43
2022-11-10T09:16:03.254Z,72.39
2022-11-10T09:17:03.333Z,74.11
2022-11-10T09:18:03.242Z,73.35
2022-11-10T09:19:03.234Z,71.01
2022-11-10T09:20:03.317Z,70.14
2022-11-10T09:21:03.231Z,77.90
2022-11-10T09:22:03.346Z,78.81
2022-11-10T09:23:03.193Z,76.38
2022-11-10T09:24:03.192Z,77.18
2022-11-10T09:25:03.178Z,72.79
2022-11-10T09:26:03.170Z,83.25
2022-11-10T09:27:03.176Z,77.37
2022-11-10T09:28:03.189Z,66.08
2022-11-10T09:29:03.164Z,75.77
2022-11-10T09:30:03.159Z,72.89
2022-11-10T09:31:03.171Z,80.97
2022-11-10T09:32:03.175Z,69.53
2022-11-10T09:33:03.188Z,72.91
2022-11-10T09:34:03.137Z,78.57
2022-11-10T09:35:03.134Z,73.57
2022-11-10T09:36:03.126Z,72.85
2022-11-10T09:37:03.117Z,74.17
2022-11-10T09:38:03.131Z,78.45
2022-11-10T09:39:03.216Z,77.08
2022-11-10T09:40:03.104Z,82.61
2022-11-10T09:41:03.147Z,78.68
2022-11-10T09:42:03.090Z,72.27
2022-11-10T09:43:03.084Z,76.23
2022-11-10T09:44:03.131Z,78.84
2022-11-10T09:45:03.075Z,85.30
2022-11-10T09:46:03.070Z,80.40
2022-11-10T09:47:03.053Z,75.71
2022-11-10T09:48:03.051Z,68.10
2022-11-10T09:49:03.046Z,68.44
2022-11-10T09:50:03.058Z,75.36
2022-11-10T09:51:03.040Z,68.53
2022-11-10T09:52:03.031Z,75.88
2022-11-10T09:53:03.055Z,81.37
2022-11-10T09:54:03.032Z,76.38
2022-11-10T09:55:03.027Z,77.01
2022-11-10T09:56:02.994Z,74.77
2022-11-10T09:57:03.000Z,72.82
2022-11-10T09:58:03.014Z,70.22
2022-11-10T09:59:02.970Z,77.73
2022-11-10T10:00:02.980Z,72.72
2022-11-10T10:01:03.036Z,77.71
2022-11-10T10:02:02.962Z,74.44
2022-11-10T10:03:02.966Z,76.13
2022-11-10T10:04:02.952Z,74.09
2022-11-10T10:05:02.937Z,76.16
2022-11-10T10:06:03.134Z,74.09
2022-11-10T10:07:11.268Z,76.44
2022-11-10T10:08:04.940Z,75.83
2022-11-10T10:09:02.932Z,78.44
2022-11-10T10:10:02.959Z,73.96
2022-11-10T10:11:02.920Z,74.97
2022-11-10T10:12:03.053Z,73.24
2022-11-10T10:13:02.900Z,74.76
2022-11-10T10:14:02.908Z,76.81
2022-11-10T10:15:02.903Z,79.09
2022-11-10T10:16:02.889Z,79.42
2022-11-10T10:17:02.912Z,77.98
2022-11-10T10:18:02.887Z,79.04
2022-11-10T10:19:02.866Z,72.98
2022-11-10T10:20:02.874Z,79.64
2022-11-10T10:21:02.864Z,80.42
2022-11-10T10:22:02.854Z,75.06
2022-11-10T10:23:02.895Z,61.07
2022-11-10T10:24:10.240Z,71.72
2022-11-10T10:25:04.916Z,73.29
2022-11-10T10:26:02.848Z,77.45
2022-11-10T10:27:02.818Z,70.86
2022-11-10T10:28:02.855Z,72.45
2022-11-10T10:29:02.807Z,69.75
2022-11-10T10:30:02.808Z,73.98
2022-11-10T10:31:02.795Z,79.80
2022-11-10T10:32:02.806Z,76.14
2022-11-10T10:33:02.787Z,79.65
2022-11-10T10:34:02.897Z,75.75
2022-11-10T10:35:02.772Z,64.42
2022-11-10T10:36:02.763Z,75.72
2022-11-10T10:37:03.778Z,75.50
2022-11-10T10:38:03.764Z,79.42
2022-11-10T10:39:02.777Z,70.60
2022-11-10T10:40:02.867Z,69.59
2022-11-10T10:41:02.774Z,74.57
2022-11-10T10:42:02.727Z,69.67
2022-11-10T10:43:02.744Z,68.85
2022-11-10T10:44:02.758Z,77.15
2022-11-10T10:45:02.852Z,74.94
2022-11-10T10:46:02.717Z,70.82
2022-11-10T10:47:02.706Z,74.92
2022-11-10T10:48:02.703Z,67.38
2022-11-10T10:49:26.730Z,81.01
2022-11-10T10:50:02.723Z,77.97
2022-11-10T10:51:02.682Z,80.37
2022-11-10T10:52:02.653Z,70.27
2022-11-10T10:53:02.666Z,78.28
2022-11-10T10:54:02.662Z,70.83
2022-11-10T10:55:02.643Z,64.16
2022-11-10T10:56:02.764Z,76.08
2022-11-10T10:57:02.641Z,68.30
2022-11-10T10:58:02.652Z,73.99
2022-11-10T10:59:02.633Z,78.60
2022-11-10T11:00:02.633Z,73.81
2022-11-10T11:01:02.687Z,71.93
2022-11-10T11:02:02.605Z,63.44
2022-11-10T11:03:04.631Z,80.00
2022-11-10T11:04:02.601Z,71.52
2022-11-10T11:05:02.617Z,80.07
2022-11-10T11:06:02.614Z,85.60
2022-11-10T11:07:02.660Z,80.29
2022-11-10T11:08:02.571Z,78.74
2022-11-10T11:09:02.576Z,72.19
2022-11-10T11:10:02.593Z,75.89
2022-11-10T11:11:02.563Z,78.43
2022-11-10T11:12:02.784Z,78.04
2022-11-10T11:13:02.559Z,78.12
2022-11-10T11:14:02.552Z,73.91
2022-11-10T11:15:02.567Z,82.78
2022-11-10T11:16:02.533Z,76.83
2022-11-10T11:17:02.580Z,71.60
2022-11-10T11:18:02.657Z,77.11
2022-11-10T11:19:02.506Z,72.53
2022-11-10T11:20:02.509Z,75.57
2022-11-10T11:21:02.510Z,73.65
2022-11-10T11:22:02.525Z,72.49
2022-11-10T11:23:02.531Z,75.31
2022-11-10T11:24:02.507Z,76.27
2022-11-10T11:25:02.465Z,67.65
2022-11-10T11:26:02.473Z,76.01
2022-11-10T11:27:02.478Z,79.14
2022-11-10T11:28:02.491Z,71.96
2022-11-10T11:29:02.492Z,75.56
2022-11-10T11:30:02.435Z,74.17
2022-11-10T11:31:02.436Z,78.18
2022-11-10T11:32:02.430Z,77.05
2022-11-10T11:33:02.444Z,80.94
2022-11-10T11:34:02.559Z,77.35
2022-11-10T11:35:02.423Z,70.14
2022-11-10T11:36:02.415Z,76.13
2022-11-10T11:37:06.899Z,65.80
2022-11-10T11:38:03.401Z,78.38
2022-11-10T11:39:02.402Z,72.15
2022-11-10T11:40:02.418Z,70.82
2022-11-10T11:41:02.387Z,77.45
2022-11-10T11:42:02.385Z,63.60
2022-11-10T11:43:02.375Z,74.13
2022-11-10T11:44:02.356Z,82.28
2022-11-10T11:45:02.455Z,76.28
2022-11-10T11:46:02.346Z,79.62
2022-11-10T11:47:02.351Z,72.05
2022-11-10T11:48:02.355Z,70.63
2022-11-10T11:49:02.332Z,81.70
2022-11-10T11:50:02.340Z,75.51
2022-11-10T11:51:02.360Z,78.62
2022-11-10T11:52:02.399Z,78.25
2022-11-10T11:53:02.321Z,69.07
2022-11-10T11:54:02.363Z,76.04
2022-11-10T11:55:02.306Z,81.55
2022-11-10T11:56:02.383Z,79.29
2022-11-10T11:57:02.287Z,76.84
2022-11-10T11:58:02.272Z,83.05
2022-11-10T11:59:02.277Z,88.04
2022-11-10T12:00:36.360Z,70.95
2022-11-10T12:01:02.263Z,65.89
2022-11-10T12:02:02.450Z,80.20
2022-11-10T12:03:02.299Z,71.75
2022-11-10T12:04:02.240Z,77.95
2022-11-10T12:05:02.256Z,72.27
2022-11-10T12:06:02.235Z,77.25
2022-11-10T12:07:02.285Z,67.77
2022-11-10T12:08:02.212Z,76.46
2022-11-10T12:09:02.210Z,74.47
2022-11-10T12:10:02.198Z,79.63
2022-11-10T12:11:02.207Z,77.12
2022-11-10T12:12:02.211Z,67.79
2022-11-10T12:13:02.298Z,72.24
2022-11-10T12:14:02.206Z,74.70
2022-11-10T12:15:02.186Z,77.62
2022-11-10T12:16:02.173Z,83.66
2022-11-10T12:17:36.891Z,81.79
2022-11-10T12:18:02.292Z,74.99
2022-11-10T12:19:02.180Z,81.43
2022-11-10T12:20:02.183Z,79.25
2022-11-10T12:21:02.145Z,81.38
2022-11-10T12:22:02.146Z,79.10
2022-11-10T12:23:02.138Z,80.66
2022-11-10T12:24:07.358Z,81.12
2022-11-10T12:25:03.137Z,70.53
2022-11-10T12:26:02.159Z,85.17
2022-11-10T12:27:02.120Z,81.36
2022-11-10T12:28:02.109Z,73.90
2022-11-10T12:29:02.155Z,75.82
2022-11-10T12:30:02.108Z,76.21
2022-11-10T12:31:02.321Z,67.47
2022-11-10T12:32:02.077Z,72.48
2022-11-10T12:33:02.069Z,79.70
2022-11-10T12:34:02.065Z,79.04
2022-11-10T12:35:03.210Z,84.85
2022-11-10T12:36:02.397Z,81.19
2022-11-10T12:37:02.046Z,78.51
2022-11-10T12:38:02.054Z,76.38
2022-11-10T12:39:02.116Z,84.75
2022-11-10T12:40:02.074Z,89.98
2022-11-10T12:41:20.955Z,73.91
2022-11-10T12:42:02.018Z,82.60
2022-11-10T12:43:02.020Z,80.03
2022-11-10T12:44:02.009Z,77.14
2022-11-10T12:45:01.987Z,82.37
2022-11-10T12:46:02.099Z,76.86
2022-11-10T12:47:01.985Z,83.34
2022-11-10T12:48:01.982Z,74.79
2022-11-10T12:49:02.000Z,78.81
2022-11-10T12:50:02.012Z,88.87
2022-11-10T12:51:01.963Z,92.16
2022-11-10T12:52:02.072Z,78.16